Rui Monteiro

Olheiro - Porto
22 Fev 2028
Terça-feira
Processo

Personalidade

Adaptabilidade (8) Ambição (8) Controvérsia (1) Lealdade (2) Pressão (13) Profissionalismo (14) Espírito Esportivo (9) Temperamento (8)

Perfil

Estilo de Treinamento Democrático
Licença Continental A
Determinação 6
Gestão de Pessoas 6
Motivação 7
Disciplina 7
Satisfação no Trabalho
100%
Fadiga
0%
Função Olheiro
Salário 114.2K p/s
Contrato 14.03.2029

Desempenho

Comportamento Bom
Eficácia do Treinamento
61%
Desenvolvimento do Jogador
65%
Prevenção de Lesões
30%
Implementação Tática
55%

Eventos Recentes

Participou de uma reunião de recrutamento 7d atrás
Participou de uma reunião de recrutamento 14d atrás
Avaliou um jogador 21d atrás
Participou de uma reunião de recrutamento 21d atrás
Observou uma partida 21d atrás
Participou de uma reunião de recrutamento 28d atrás
Observou uma partida 28d atrás
Participando de desenvolvimento profissional 35d atrás

Monitorando agora

60
Jogador Clube Status Habilidade Confiança Observado Última observação Último voto
Declan Rice Arsenal Ativo 196 / 184 40% 5 31.01.2028 -
Matthijs de Ligt Manchester United Ativo 165 / 169 40% 2 31.01.2028 -
Chuchu Ramírez Nacional Ativo 137 / 138 58% 1 03.01.2028 -
Michael Cooper Sheffield United Ativo 144 / 132 40% 1 31.12.2027 -
Filip Stanković Virtus Entella Ativo 136 / 137 40% 1 31.12.2027 -
Sven Botman Newcastle United Ativo 161 / 160 40% 2 26.12.2027 -
Enzo Barrenechea Betis Ativo 155 / 156 40% 2 26.12.2027 -
Gavi Barcelona Ativo 173 / 163 40% 2 24.12.2027 -
Jan Paul van Hecke Tottenham Ativo 155 / 163 40% 3 24.12.2027 -
Pedro Porro Tottenham Ativo 159 / 150 40% 2 22.12.2027 -
José Ángel Carmona Sevilla Ativo 157 / 154 40% 1 22.12.2027 -
Reece James Chelsea Ativo 183 / 174 40% 4 17.12.2027 -
Omar El Hilali Espanyol Ativo 162 / 151 40% 2 13.12.2027 -
Tino Livramento Newcastle United Ativo 165 / 165 40% 3 12.12.2027 -
Jake O'Brien Everton Ativo 144 / 152 40% 1 12.12.2027 -
Ryan Gravenberch Liverpool Ativo 156 / 165 40% 1 11.12.2027 -
Kobbie Mainoo Leicester City Ativo 152 / 160 40% 2 10.12.2027 -
Abdukodir Khusanov Coventry City Ativo 154 / 164 40% 1 10.12.2027 -
Nico González Newcastle United Ativo 174 / 168 40% 1 09.12.2027 -
Roméo Lavia Blackburn Rovers Ativo 143 / 159 40% 1 09.12.2027 -
Martín Zubimendi Arsenal Ativo 160 / 172 40% 2 02.12.2027 -
Vitinha Paris Saint-Germain Ativo 172 / 179 40% 2 29.11.2027 -
Wesley Fofana Chelsea Ativo 166 / 168 40% 1 29.11.2027 -
Alexis Mac Allister Liverpool Ativo 169 / 165 40% 4 28.11.2027 -
Adam Wharton Crystal Palace Ativo 159 / 156 40% 2 26.11.2027 -
Natan Betis Ativo 163 / 154 40% 1 26.11.2027 -
Conor Gallagher Tottenham Ativo 168 / 160 40% 2 25.11.2027 -
Conor Bradley Bristol City Ativo 168 / 159 40% 3 24.11.2027 -
Arnau Martínez Valencia Ativo 142 / 156 40% 1 24.11.2027 -
Ismaël Bennacer Malmo FF Ativo 154 / 150 40% 7 21.11.2027 -
Sergio Gómez Real Sociedad Ativo 160 / 143 40% 1 20.11.2027 -
Sandro Tonali Tottenham Ativo 168 / 178 40% 1 16.11.2027 -
André Wolverhampton Ativo 150 / 151 40% 1 15.11.2027 -
Moisés Caicedo Chelsea Ativo 163 / 174 40% 3 14.11.2027 -
Jakub Kiwior Everton Ativo 169 / 164 40% 1 14.11.2027 -
Tyler Adams Bournemouth Ativo 167 / 161 40% 1 09.11.2027 -
Aurélien Tchouaméni Real Madrid Ativo 163 / 169 40% 2 08.11.2027 -
Piero Hincapié Arsenal Ativo 171 / 160 40% 1 08.11.2027 -
Alex Scott Bournemouth Ativo 149 / 158 40% 3 03.11.2027 -
Achraf Hakimi Paris Saint-Germain Ativo 194 / 182 40% 1 27.10.2027 -
Joško Gvardiol Napoli Ativo 178 / 163 40% 2 20.10.2027 -
Melvin Bard OGC Nice Ativo 142 / 149 40% 1 18.10.2027 -
Jack Hinshelwood Brighton Ativo 144 / 149 40% 1 18.10.2027 -
Gabriel Arsenal Ativo 182 / 178 40% 2 15.10.2027 -
Bruno Guimarães Arsenal Ativo 166 / 174 40% 2 11.10.2027 -
Yehor Yarmoliuk Brentford Ativo 164 / 154 40% 2 30.09.2027 -
William Saliba Arsenal Ativo 172 / 184 40% 1 27.09.2027 -
Micky van de Ven Tottenham Ativo 158 / 166 40% 1 27.09.2027 -
Maximiliano Araújo Crystal Palace Ativo 148 / 159 40% 1 24.09.2027 -
Lisandro Martínez Manchester United Ativo 167 / 161 40% 1 21.09.2027 -
Riccardo Calafiori Hull City Ativo 156 / 167 40% 1 17.09.2027 -
Miloš Kerkez Liverpool Ativo 170 / 157 40% 1 17.09.2027 -
Amadou Onana Aston Villa Ativo 149 / 157 40% 1 08.09.2027 -
Anton Stach Leeds United Ativo 159 / 157 40% 1 07.09.2027 -
Jeremie Frimpong Liverpool Ativo 166 / 166 40% 1 07.09.2027 -
Gustavo Silva Vitoria Guimaraes Ativo 131 / 125 58% 1 02.06.2027 -
Gustaf Lagerbielke Braga Ativo 146 / 142 58% 1 01.06.2027 -
Senne Lammens Manchester United Ativo 159 / 157 40% 1 31.05.2027 -
Tomoki Hayakawa Kashima Antlers Ativo 157 / 149 40% 1 31.05.2027 -
Noussair Mazraoui Manchester United Ativo 156 / 149 40% 1 31.12.2026 -